Flight Track Log - Related Links

Times and Time Zones

All times are in EST time to prevent confusion due to time zone crossing. See the N88JH flight status page for this flight to view local times or setup timezone preferences in your user account.

Time Position Orientation Groundspeed Altitude Reporting Facility
EST Latitude Longitude Course Direction KTS MPH feet Rate Location/Type
Mon 01:10:10 PM 43.5806 -110.7536 289° West 188 216 7,500  Level Salt Lake Center
Mon 01:11:12 PM 43.5431 -110.7869 213° Southwest 162 186 9,300 2,098 Climbing Salt Lake Center
Mon 01:12:13 PM 43.4917 -110.8167 203° Southwest 166 191 11,800 2,293 Climbing Salt Lake Center
Mon 01:13:15 PM 43.4500 -110.8442 206° Southwest 165 190 14,000 1,984 Climbing Salt Lake Center
Mon 01:14:00 PM 43.2567 -110.9511 206° Southwest  Level FlightAware Approximate
Mon 01:14:17 PM 43.4064 -110.8697 203° Southwest 171 197 15,900  Level Salt Lake Center
Mon 01:15:00 PM 43.2221 -111.0050 289° West  Level FlightAware Approximate
Mon 01:15:18 PM 43.3683 -110.9061 215° Southwest 169 194 17,700  Level Salt Lake Center
Mon 01:16:20 PM 43.3753 -110.9639 279° West 156 180 19,400 1,887 Climbing Salt Lake Center
Mon 01:17:22 PM 43.3825 -111.0247 279° West 149 171 21,600 1,839 Climbing Salt Lake Center
Mon 01:18:24 PM 43.3839 -111.0783 272° West 147 169 23,200 1,756 Climbing Salt Lake Center
Mon 01:19:25 PM 43.3906 -111.1481 278° West 163 188 25,200 1,854 Climbing Salt Lake Center
Mon 01:20:27 PM 43.3933 -111.2056 274° West 158 182 27,000 1,790 Climbing Salt Lake Center
Mon 01:21:29 PM 43.3972 -111.2661 275° West 142 163 28,900 1,403 Climbing Salt Lake Center
Mon 01:22:31 PM 43.3992 -111.3164 273° West 138 159 29,900 488 Climbing Salt Lake Center
Mon 01:23:32 PM 43.4025 -111.3786 274° West 164 189 29,900  Level Salt Lake Center
Mon 01:24:34 PM 43.4069 -111.4658 274° West 201 231 29,900  Level Salt Lake Center
Mon 01:25:36 PM 43.4106 -111.5472 274° West 216 249 29,900  Level Salt Lake Center
Mon 01:26:38 PM 43.4156 -111.6408 274° West 221 254 29,900  Level Salt Lake Center
Mon 01:27:39 PM 43.4186 -111.7222 273° West 223 257 29,900  Level Salt Lake Center
Mon 01:28:41 PM 43.4242 -111.8147 275° West 220 253 29,900  Level Salt Lake Center
Mon 01:29:43 PM 43.4275 -111.8989 273° West 227 261 29,900  Level Salt Lake Center
Mon 01:30:45 PM 43.4317 -111.9958 273° West 227 261 29,900  Level Salt Lake Center
Mon 01:31:47 PM 43.4356 -112.0789 274° West 229 264 29,900  Level Salt Lake Center
Mon 01:32:49 PM 43.4392 -112.1628 273° West 230 265 29,900  Level Salt Lake Center
Mon 01:33:50 PM 43.4442 -112.2600 274° West 229 264 29,900  Level Salt Lake Center
Mon 01:34:52 PM 43.4472 -112.3431 273° West 227 261 29,900  Level Salt Lake Center
Mon 01:35:54 PM 43.4508 -112.4408 273° West 231 266 29,900  Level Salt Lake Center
Mon 01:36:56 PM 43.4561 -112.5239 275° West 229 264 29,900 48 Level Salt Lake Center
Mon 01:37:58 PM 43.4592 -112.6214 273° West 228 262 30,000 48 Climbing Salt Lake Center
Mon 01:39:00 PM 43.4622 -112.7053 273° West 230 265 30,000  Level Salt Lake Center
Mon 01:40:02 PM 43.4656 -112.7850 273° West 221 254 30,000  Level Salt Lake Center
Mon 01:41:04 PM 43.4703 -112.8842 274° West 226 260 30,000  Level Salt Lake Center
Mon 01:42:06 PM 43.4728 -112.9664 272° West 226 260 30,000  Level Salt Lake Center
Mon 01:43:08 PM 43.4758 -113.0622 273° West 226 260 30,000  Level Salt Lake Center
Mon 01:44:10 PM 43.4803 -113.1456 274° West 227 261 30,000  Level Salt Lake Center
Mon 01:45:12 PM 43.4836 -113.2439 273° West 229 264 30,000  Level Salt Lake Center
Mon 01:46:14 PM 43.4864 -113.3267 273° West 229 264 30,000  Level Salt Lake Center
Mon 01:47:16 PM 43.4903 -113.4242 273° West 228 262 30,000  Level Salt Lake Center
Mon 01:48:18 PM 43.4928 -113.5067 272° West 227 261 30,000  Level Salt Lake Center
Mon 01:49:20 PM 43.4983 -113.6072 274° West 231 266 30,000  Level Salt Lake Center
Mon 01:50:22 PM 43.5014 -113.6908 273° West 229 264 30,000  Level Salt Lake Center
Mon 01:51:24 PM 43.5044 -113.7903 272° West 233 268 30,000  Level Salt Lake Center
Mon 01:52:26 PM 43.5064 -113.8736 272° West 226 260 30,000  Level Salt Lake Center
Mon 01:53:29 PM 43.5078 -113.9586 271° West 225 259 30,000 -432 Level Salt Lake Center
Mon 01:54:31 PM 43.5106 -114.0497 272° West 237 273 29,100 -1,065 Descending Salt Lake Center
Mon 01:55:33 PM 43.5128 -114.1547 272° West 230 265 27,800 -1,113 Descending Salt Lake Center
Mon 01:56:35 PM 43.5156 -114.2417 273° West 230 265 26,800 -1,016 Descending Salt Lake Center
Mon 01:57:37 PM 43.5175 -114.3303 272° West 231 266 25,700 -1,065 Descending Salt Lake Center
Mon 01:58:39 PM 43.5194 -114.4203 272° West 236 272 24,600 -1,113 Descending Salt Lake Center
Mon 01:59:41 PM 43.5214 -114.5147 272° West 246 283 23,400 -1,016 Descending Salt Lake Center
Mon 02:00:43 PM 43.5244 -114.6117 273° West 252 290 22,500 -774 Descending Salt Lake Center
Mon 02:01:45 PM 43.5272 -114.7256 272° West 247 284 21,800 -629 Descending Salt Lake Center
Mon 02:02:47 PM 43.5300 -114.8211 272° West 251 289 21,200 -581 Descending Salt Lake Center
Mon 02:03:49 PM 43.5317 -114.9222 271° West 262 302 20,600 -581 Descending Salt Lake Center
Mon 02:04:51 PM 43.5339 -115.0342 272° West 266 306 20,000 -581 Descending Salt Lake Center
Mon 02:05:53 PM 43.5361 -115.1331 272° West 268 308 19,400 -593 Descending Salt Lake Center
Mon 02:06:12 PM 43.5364 -115.1647 271° West 266 306 19,200 -581 Descending Salt Lake Center
Mon 02:06:55 PM 43.5386 -115.2389 272° West 266 306 18,800 -600 Descending Salt Lake Center
Mon 02:07:12 PM 43.5389 -115.2708 271° West 266 306 18,600 -923 Descending Salt Lake Center
Mon 02:08:13 PM 43.5414 -115.3772 272° West 272 313 17,600 -1,009 Descending Salt Lake Center
Mon 02:08:59 PM 43.5414 -115.4567 270° West 275 316 16,800 -1,100 Descending Salt Lake Center
Mon 02:09:13 PM 43.5411 -115.4814 269° West 278 320 16,500 -1,161 Descending Salt Lake Center
Mon 02:10:01 PM 43.5433 -115.5681 272° West 279 321 15,600 -1,082 Descending Salt Lake Center
Mon 02:10:14 PM 43.5447 -115.5931 274° West 275 316 15,400 -871 Descending Salt Lake Center
Mon 02:11:03 PM 43.5467 -115.6739 272° West 267 307 14,700 -764 Descending Salt Lake Center
Mon 02:11:09 PM 43.5494 -115.6806 300° West 264 304 14,700 -871 Level Salt Lake Center
Mon 02:12:05 PM 43.5742 -115.7717 291° West 264 304 13,800 -909 Descending Salt Lake Center
Mon 02:12:15 PM 43.5800 -115.7878 297° West 260 299 13,700 -774 Descending Salt Lake Center
Mon 02:13:07 PM 43.6011 -115.8636 291° West 267 307 13,000 -885 Descending Salt Lake Center
Mon 02:13:16 PM 43.6056 -115.8822 288° West 271 312 12,800 -871 Descending Salt Lake Center
Mon 02:14:09 PM 43.6306 -115.9639 293° West 270 311 12,100 -896 Descending Salt Lake Center
Mon 02:14:23 PM 43.6403 -115.9908 297° West 270 311 11,800 -968 Descending Salt Lake Center
Mon 02:15:11 PM 43.6608 -116.0650 291° West 264 304 11,100 -889 Descending Salt Lake Center
Mon 02:15:17 PM 43.6642 -116.0769 291° West 265 305 11,000 -968 Descending Salt Lake Center
Mon 02:16:13 PM 43.6889 -116.1592 293° West 264 304 10,100 -984 Descending Salt Lake Center
Mon 02:16:18 PM 43.6928 -116.1672 304° West 263 303 10,000 -738 Descending Salt Lake Center
Mon 02:17:18 PM 43.7044 -116.2583 280° West 235 270 9,300 -850 Descending Salt Lake Center
Mon 02:18:25 PM 43.7219 -116.3469 285° West 201 231 8,200 -942 Descending Salt Lake Center
Mon 02:19:19 PM 43.7292 -116.4067 280° West 203 234 7,400 -982 Descending Salt Lake Center
Mon 02:19:20 PM 43.7258 -116.4108 222° Southwest 185 213 7,300 -857 Descending Salt Lake Center
Mon 02:20:22 PM 43.6917 -116.4403 212° Southwest 163 188 6,500 -545 Descending Salt Lake Center
Mon 02:21:21 PM 43.6436 -116.4653 201° Southwest 164 189 6,200 -290 Descending Salt Lake Center
Mon 02:21:24 PM 43.6394 -116.4650 177° South 164 189 6,200 -700 Level Salt Lake Center
Mon 02:22:21 PM 43.6247 -116.4011 108° East 188 216 5,500 -774 Descending Salt Lake Center
Mon 02:22:26 PM 43.6242 -116.3983 105° East 189 217 5,400 -896 Descending Salt Lake Center
Mon 02:23:28 PM 43.6025 -116.3419 118° Southeast 163 188 4,500 -821 Descending Salt Lake Center
Mon 02:24:23 PM 43.5886 -116.2956 112° Southeast 147 169 3,800 -677 Descending Salt Lake Center
Mon 02:24:30 PM 43.5869 -116.2906 115° Southeast 157 181 3,800 -261 Level Salt Lake Center
Mon 02:25:32 PM 43.5694 -116.2344 113° Southeast 152 175 3,500 -290 Descending Salt Lake Center

Login

Don't have an account? Register now (free) for customized features, flight alerts, and more!